sensor_id;sensor_type;location;lat;lon;timestamp;pressure;altitude;pressure_sealevel;temperature;humidity
76598;BME280;65486;53.144;18.134;2023-06-26T00:00:34;101083.30;;;17.54;61.18
76598;BME280;65486;53.144;18.134;2023-06-26T00:03:20;101079.05;;;17.47;61.27
76598;BME280;65486;53.144;18.134;2023-06-26T00:05:47;101077.46;;;17.41;61.48
76598;BME280;65486;53.144;18.134;2023-06-26T00:08:13;101076.13;;;17.36;61.71
76598;BME280;65486;53.144;18.134;2023-06-26T00:10:39;101075.89;;;17.31;61.76
76598;BME280;65486;53.144;18.134;2023-06-26T00:13:07;101074.14;;;17.25;61.76
76598;BME280;65486;53.144;18.134;2023-06-26T00:15:34;101075.05;;;17.18;62.06
76598;BME280;65486;53.144;18.134;2023-06-26T00:18:00;101077.05;;;17.14;62.67
76598;BME280;65486;53.144;18.134;2023-06-26T00:20:29;101073.71;;;17.13;62.70
76598;BME280;65486;53.144;18.134;2023-06-26T00:22:55;101074.92;;;17.12;62.90
76598;BME280;65486;53.144;18.134;2023-06-26T00:25:24;101078.24;;;17.11;63.02
76598;BME280;65486;53.144;18.134;2023-06-26T00:27:51;101078.95;;;17.10;63.14
76598;BME280;65486;53.144;18.134;2023-06-26T00:30:17;101077.05;;;17.10;63.36
76598;BME280;65486;53.144;18.134;2023-06-26T00:32:44;101072.69;;;17.07;63.36
76598;BME280;65486;53.144;18.134;2023-06-26T00:35:11;101072.93;;;17.04;63.38
76598;BME280;65486;53.144;18.134;2023-06-26T00:37:37;101075.64;;;17.02;63.59
76598;BME280;65486;53.144;18.134;2023-06-26T00:40:06;101072.46;;;16.98;63.72
76598;BME280;65486;53.144;18.134;2023-06-26T00:42:33;101071.59;;;16.96;63.95
76598;BME280;65486;53.144;18.134;2023-06-26T00:44:59;101069.38;;;16.94;63.88
76598;BME280;65486;53.144;18.134;2023-06-26T00:47:26;101066.73;;;16.91;64.19
76598;BME280;65486;53.144;18.134;2023-06-26T00:49:54;101063.95;;;16.87;64.38
76598;BME280;65486;53.144;18.134;2023-06-26T00:52:22;101061.39;;;16.84;64.42
76598;BME280;65486;53.144;18.134;2023-06-26T00:54:56;101061.39;;;16.80;64.57
76598;BME280;65486;53.144;18.134;2023-06-26T00:57:25;101061.94;;;16.75;64.96
76598;BME280;65486;53.144;18.134;2023-06-26T00:59:53;101059.09;;;16.71;65.26
76598;BME280;65486;53.144;18.134;2023-06-26T01:02:21;101063.92;;;16.66;65.28
76598;BME280;65486;53.144;18.134;2023-06-26T01:04:49;101060.76;;;16.59;65.48
76598;BME280;65486;53.144;18.134;2023-06-26T01:07:16;101063.88;;;16.54;65.59
76598;BME280;65486;53.144;18.134;2023-06-26T01:09:49;101060.22;;;16.48;65.86
76598;BME280;65486;53.144;18.134;2023-06-26T01:12:15;101061.06;;;16.42;66.22
76598;BME280;65486;53.144;18.134;2023-06-26T01:14:41;101063.51;;;16.38;66.27
76598;BME280;65486;53.144;18.134;2023-06-26T01:17:09;101064.38;;;16.33;66.61
76598;BME280;65486;53.144;18.134;2023-06-26T01:19:41;101059.35;;;16.29;66.73
76598;BME280;65486;53.144;18.134;2023-06-26T01:22:20;101055.70;;;16.26;67.06
76598;BME280;65486;53.144;18.134;2023-06-26T01:27:54;101056.23;;;16.23;67.33
76598;BME280;65486;53.144;18.134;2023-06-26T01:30:24;101051.54;;;16.20;67.37
76598;BME280;65486;53.144;18.134;2023-06-26T01:32:51;101050.27;;;16.17;67.35
76598;BME280;65486;53.144;18.134;2023-06-26T01:35:18;101047.08;;;16.13;67.71
76598;BME280;65486;53.144;18.134;2023-06-26T01:37:45;101045.90;;;16.09;67.85
76598;BME280;65486;53.144;18.134;2023-06-26T01:40:12;101047.46;;;16.06;68.12
76598;BME280;65486;53.144;18.134;2023-06-26T01:42:39;101041.73;;;16.03;68.00
76598;BME280;65486;53.144;18.134;2023-06-26T01:45:20;101038.05;;;15.99;68.17
76598;BME280;65486;53.144;18.134;2023-06-26T01:47:50;101037.70;;;15.95;68.31
76598;BME280;65486;53.144;18.134;2023-06-26T01:50:22;101036.77;;;15.93;68.50
76598;BME280;65486;53.144;18.134;2023-06-26T01:55:55;101040.45;;;15.84;68.72
76598;BME280;65486;53.144;18.134;2023-06-26T01:58:27;101040.07;;;15.78;68.77
76598;BME280;65486;53.144;18.134;2023-06-26T02:00:54;101036.64;;;15.73;68.77
76598;BME280;65486;53.144;18.134;2023-06-26T02:03:21;101037.19;;;15.69;69.09
76598;BME280;65486;53.144;18.134;2023-06-26T02:05:50;101036.73;;;15.66;69.38
76598;BME280;65486;53.144;18.134;2023-06-26T02:08:18;101033.16;;;15.62;69.33
76598;BME280;65486;53.144;18.134;2023-06-26T02:10:49;101033.46;;;15.54;69.29
76598;BME280;65486;53.144;18.134;2023-06-26T02:13:16;101030.25;;;15.49;69.72
76598;BME280;65486;53.144;18.134;2023-06-26T02:15:42;101031.99;;;15.44;69.56
76598;BME280;65486;53.144;18.134;2023-06-26T02:18:13;101031.37;;;15.37;69.75
76598;BME280;65486;53.144;18.134;2023-06-26T02:20:39;101031.57;;;15.33;69.96
76598;BME280;65486;53.144;18.134;2023-06-26T02:23:06;101030.45;;;15.29;70.24
76598;BME280;65486;53.144;18.134;2023-06-26T02:25:35;101027.69;;;15.25;70.41
76598;BME280;65486;53.144;18.134;2023-06-26T02:28:01;101026.73;;;15.19;70.55
76598;BME280;65486;53.144;18.134;2023-06-26T02:30:35;101024.67;;;15.14;70.61
76598;BME280;65486;53.144;18.134;2023-06-26T02:33:04;101027.31;;;15.10;70.77
76598;BME280;65486;53.144;18.134;2023-06-26T02:35:32;101025.74;;;15.06;70.72
76598;BME280;65486;53.144;18.134;2023-06-26T02:37:58;101027.34;;;15.03;70.91
76598;BME280;65486;53.144;18.134;2023-06-26T02:40:25;101033.90;;;15.00;71.02
76598;BME280;65486;53.144;18.134;2023-06-26T02:42:52;101027.89;;;15.00;71.27
76598;BME280;65486;53.144;18.134;2023-06-26T02:45:19;101030.77;;;14.97;71.25
76598;BME280;65486;53.144;18.134;2023-06-26T02:47:45;101034.59;;;14.94;71.21
76598;BME280;65486;53.144;18.134;2023-06-26T02:50:12;101031.46;;;14.90;71.37
76598;BME280;65486;53.144;18.134;2023-06-26T02:53:01;101034.27;;;14.91;71.62
76598;BME280;65486;53.144;18.134;2023-06-26T02:55:27;101038.40;;;14.93;71.63
76598;BME280;65486;53.144;18.134;2023-06-26T02:57:55;101041.76;;;14.97;71.69
76598;BME280;65486;53.144;18.134;2023-06-26T03:00:22;101034.98;;;14.96;71.72
76598;BME280;65486;53.144;18.134;2023-06-26T03:02:49;101035.95;;;14.98;71.69
76598;BME280;65486;53.144;18.134;2023-06-26T03:05:19;101038.98;;;15.00;71.77
76598;BME280;65486;53.144;18.134;2023-06-26T03:07:45;101038.66;;;15.03;71.71
76598;BME280;65486;53.144;18.134;2023-06-26T03:10:12;101037.73;;;15.03;71.55
76598;BME280;65486;53.144;18.134;2023-06-26T03:12:42;101038.56;;;15.03;71.54
76598;BME280;65486;53.144;18.134;2023-06-26T03:15:09;101032.81;;;15.05;71.56
76598;BME280;65486;53.144;18.134;2023-06-26T03:17:37;101033.45;;;15.09;71.58
76598;BME280;65486;53.144;18.134;2023-06-26T03:20:07;101032.95;;;15.13;71.65
76598;BME280;65486;53.144;18.134;2023-06-26T03:22:54;101029.33;;;15.18;71.64
76598;BME280;65486;53.144;18.134;2023-06-26T03:25:21;101030.25;;;15.25;71.66
76598;BME280;65486;53.144;18.134;2023-06-26T03:27:48;101030.36;;;15.31;71.56
76598;BME280;65486;53.144;18.134;2023-06-26T03:30:16;101029.80;;;15.37;71.58
76598;BME280;65486;53.144;18.134;2023-06-26T03:32:46;101028.95;;;15.45;71.47
76598;BME280;65486;53.144;18.134;2023-06-26T03:35:15;101031.16;;;15.54;71.32
76598;BME280;65486;53.144;18.134;2023-06-26T03:37:41;101030.86;;;15.61;71.24
76598;BME280;65486;53.144;18.134;2023-06-26T03:40:08;101031.98;;;15.70;71.06
76598;BME280;65486;53.144;18.134;2023-06-26T03:42:35;101031.10;;;15.81;71.05
76598;BME280;65486;53.144;18.134;2023-06-26T03:45:02;101030.80;;;15.92;70.78
76598;BME280;65486;53.144;18.134;2023-06-26T03:47:31;101032.37;;;16.02;70.68
76598;BME280;65486;53.144;18.134;2023-06-26T03:49:57;101029.05;;;16.13;70.55
76598;BME280;65486;53.144;18.134;2023-06-26T03:52:23;101026.73;;;16.24;70.44
76598;BME280;65486;53.144;18.134;2023-06-26T03:54:50;101021.58;;;16.34;70.27
76598;BME280;65486;53.144;18.134;2023-06-26T03:57:17;101019.89;;;16.47;69.98
76598;BME280;65486;53.144;18.134;2023-06-26T03:59:43;101019.82;;;16.60;69.78
76598;BME280;65486;53.144;18.134;2023-06-26T04:02:09;101018.88;;;16.71;69.65
76598;BME280;65486;53.144;18.134;2023-06-26T04:04:37;101015.70;;;16.84;69.43
76598;BME280;65486;53.144;18.134;2023-06-26T04:07:04;101014.50;;;16.98;69.25
76598;BME280;65486;53.144;18.134;2023-06-26T04:09:33;101014.38;;;17.15;69.05
76598;BME280;65486;53.144;18.134;2023-06-26T04:11:59;101015.46;;;17.31;68.66
76598;BME280;65486;53.144;18.134;2023-06-26T04:14:26;101016.60;;;17.48;68.54
76598;BME280;65486;53.144;18.134;2023-06-26T04:16:53;101018.03;;;17.66;68.40
76598;BME280;65486;53.144;18.134;2023-06-26T04:19:20;101013.70;;;17.85;68.03
76598;BME280;65486;53.144;18.134;2023-06-26T04:21:46;101010.17;;;18.03;67.77
76598;BME280;65486;53.144;18.134;2023-06-26T04:24:13;101003.02;;;18.14;67.35
76598;BME280;65486;53.144;18.134;2023-06-26T04:26:42;101012.46;;;18.31;67.16
76598;BME280;65486;53.144;18.134;2023-06-26T04:29:09;101009.73;;;18.46;66.78
76598;BME280;65486;53.144;18.134;2023-06-26T04:31:38;101007.90;;;18.63;66.65
76598;BME280;65486;53.144;18.134;2023-06-26T04:34:07;101008.05;;;18.81;66.26
76598;BME280;65486;53.144;18.134;2023-06-26T04:36:34;101009.73;;;18.94;65.87
76598;BME280;65486;53.144;18.134;2023-06-26T04:39:05;101011.09;;;19.07;65.58
76598;BME280;65486;53.144;18.134;2023-06-26T04:41:32;101010.20;;;19.22;65.44
76598;BME280;65486;53.144;18.134;2023-06-26T04:43:59;101011.68;;;19.35;64.74
76598;BME280;65486;53.144;18.134;2023-06-26T04:46:26;101015.60;;;19.47;64.38
76598;BME280;65486;53.144;18.134;2023-06-26T04:48:54;101011.05;;;19.58;64.28
76598;BME280;65486;53.144;18.134;2023-06-26T04:51:20;101011.35;;;19.73;63.73
76598;BME280;65486;53.144;18.134;2023-06-26T04:53:47;101009.92;;;20.09;62.76
76598;BME280;65486;53.144;18.134;2023-06-26T04:56:16;101003.04;;;20.63;61.36
76598;BME280;65486;53.144;18.134;2023-06-26T04:58:42;101000.41;;;20.83;61.63
76598;BME280;65486;53.144;18.134;2023-06-26T05:01:08;101004.66;;;21.01;60.95
76598;BME280;65486;53.144;18.134;2023-06-26T05:03:36;101009.00;;;21.16;60.57
76598;BME280;65486;53.144;18.134;2023-06-26T05:06:03;101007.12;;;21.44;59.75
76598;BME280;65486;53.144;18.134;2023-06-26T05:08:31;101011.36;;;21.66;58.50
76598;BME280;65486;53.144;18.134;2023-06-26T05:10:58;101007.05;;;21.80;58.45
76598;BME280;65486;53.144;18.134;2023-06-26T05:13:27;101009.34;;;21.98;58.49
76598;BME280;65486;53.144;18.134;2023-06-26T05:15:56;101007.75;;;22.08;57.95
76598;BME280;65486;53.144;18.134;2023-06-26T05:18:23;101011.53;;;22.15;57.73
76598;BME280;65486;53.144;18.134;2023-06-26T05:20:53;101008.92;;;22.21;56.73
76598;BME280;65486;53.144;18.134;2023-06-26T05:23:20;101004.83;;;22.29;57.00
76598;BME280;65486;53.144;18.134;2023-06-26T05:25:48;101000.98;;;22.47;56.58
76598;BME280;65486;53.144;18.134;2023-06-26T05:28:17;101002.73;;;22.71;56.35
76598;BME280;65486;53.144;18.134;2023-06-26T05:30:45;100996.98;;;22.97;55.14
76598;BME280;65486;53.144;18.134;2023-06-26T05:33:14;100998.79;;;23.10;55.00
76598;BME280;65486;53.144;18.134;2023-06-26T05:35:45;100996.13;;;23.14;54.63
76598;BME280;65486;53.144;18.134;2023-06-26T05:38:13;100989.38;;;23.11;54.88
76598;BME280;65486;53.144;18.134;2023-06-26T05:40:40;100993.59;;;23.23;54.78
76598;BME280;65486;53.144;18.134;2023-06-26T05:43:07;100998.09;;;23.80;53.35
76598;BME280;65486;53.144;18.134;2023-06-26T05:45:33;100991.89;;;24.71;51.72
76598;BME280;65486;53.144;18.134;2023-06-26T05:48:01;100992.38;;;25.65;50.10
76598;BME280;65486;53.144;18.134;2023-06-26T05:50:32;100990.66;;;26.64;48.31
76598;BME280;65486;53.144;18.134;2023-06-26T05:52:58;100989.94;;;27.62;46.42
76598;BME280;65486;53.144;18.134;2023-06-26T05:55:29;100988.40;;;28.52;45.14
76598;BME280;65486;53.144;18.134;2023-06-26T05:57:57;100977.62;;;29.37;43.05
76598;BME280;65486;53.144;18.134;2023-06-26T06:00:27;100977.50;;;30.04;41.56
76598;BME280;65486;53.144;18.134;2023-06-26T06:02:53;100979.98;;;30.55;40.70
76598;BME280;65486;53.144;18.134;2023-06-26T06:05:22;100977.57;;;31.07;39.96
76598;BME280;65486;53.144;18.134;2023-06-26T06:07:50;100973.39;;;31.66;38.69
76598;BME280;65486;53.144;18.134;2023-06-26T06:10:16;100976.77;;;32.28;37.08
76598;BME280;65486;53.144;18.134;2023-06-26T06:12:43;100976.02;;;32.87;35.31
76598;BME280;65486;53.144;18.134;2023-06-26T06:15:09;100977.50;;;33.31;34.77
76598;BME280;65486;53.144;18.134;2023-06-26T06:17:36;100973.73;;;33.72;33.34
76598;BME280;65486;53.144;18.134;2023-06-26T06:20:03;100972.83;;;34.09;33.29
76598;BME280;65486;53.144;18.134;2023-06-26T06:22:30;100964.83;;;34.62;32.07
76598;BME280;65486;53.144;18.134;2023-06-26T06:24:58;100967.20;;;35.07;31.19
76598;BME280;65486;53.144;18.134;2023-06-26T06:27:24;100965.75;;;35.42;30.58
76598;BME280;65486;53.144;18.134;2023-06-26T06:29:53;100967.13;;;35.80;29.46
76598;BME280;65486;53.144;18.134;2023-06-26T06:32:21;100965.02;;;36.07;28.45
76598;BME280;65486;53.144;18.134;2023-06-26T06:34:50;100964.63;;;36.12;28.47
76598;BME280;65486;53.144;18.134;2023-06-26T06:37:17;100962.73;;;36.33;28.42
76598;BME280;65486;53.144;18.134;2023-06-26T06:39:44;100963.31;;;36.55;27.72
76598;BME280;65486;53.144;18.134;2023-06-26T06:42:11;100962.37;;;36.91;27.11
76598;BME280;65486;53.144;18.134;2023-06-26T06:44:37;100961.56;;;37.31;26.32
76598;BME280;65486;53.144;18.134;2023-06-26T06:47:03;100962.95;;;37.52;26.17
76598;BME280;65486;53.144;18.134;2023-06-26T06:49:30;100958.31;;;37.88;25.73
76598;BME280;65486;53.144;18.134;2023-06-26T06:51:57;100946.64;;;38.28;25.01
76598;BME280;65486;53.144;18.134;2023-06-26T06:54:26;100953.50;;;38.67;24.33
76598;BME280;65486;53.144;18.134;2023-06-26T06:56:55;100955.85;;;38.94;24.06
76598;BME280;65486;53.144;18.134;2023-06-26T06:59:22;100954.20;;;39.24;23.36
76598;BME280;65486;53.144;18.134;2023-06-26T07:01:49;100955.27;;;39.18;23.04
76598;BME280;65486;53.144;18.134;2023-06-26T07:04:17;100955.52;;;39.35;23.09
76598;BME280;65486;53.144;18.134;2023-06-26T07:06:44;100947.95;;;39.67;22.03
76598;BME280;65486;53.144;18.134;2023-06-26T07:09:15;100949.81;;;39.85;21.43
76598;BME280;65486;53.144;18.134;2023-06-26T07:11:44;100951.02;;;39.90;21.15
76598;BME280;65486;53.144;18.134;2023-06-26T07:14:15;100950.73;;;39.68;20.98
76598;BME280;65486;53.144;18.134;2023-06-26T07:16:41;100949.44;;;39.64;21.10
76598;BME280;65486;53.144;18.134;2023-06-26T07:19:07;100947.85;;;39.71;21.31
76598;BME280;65486;53.144;18.134;2023-06-26T07:21:34;100951.64;;;39.82;21.42
76598;BME280;65486;53.144;18.134;2023-06-26T07:24:00;100949.48;;;39.86;21.38
76598;BME280;65486;53.144;18.134;2023-06-26T07:26:27;100944.73;;;39.71;21.16
76598;BME280;65486;53.144;18.134;2023-06-26T07:28:56;100948.54;;;39.59;21.38
76598;BME280;65486;53.144;18.134;2023-06-26T07:31:24;100945.91;;;39.59;21.76
76598;BME280;65486;53.144;18.134;2023-06-26T07:33:51;100946.13;;;39.71;21.55
76598;BME280;65486;53.144;18.134;2023-06-26T07:36:17;100950.45;;;39.93;21.29
76598;BME280;65486;53.144;18.134;2023-06-26T07:38:43;100947.56;;;40.09;21.26
76598;BME280;65486;53.144;18.134;2023-06-26T07:41:10;100945.54;;;40.22;20.84
76598;BME280;65486;53.144;18.134;2023-06-26T07:43:37;100945.05;;;40.19;20.52
76598;BME280;65486;53.144;18.134;2023-06-26T07:46:06;100946.40;;;39.93;20.56
76598;BME280;65486;53.144;18.134;2023-06-26T07:48:33;100935.97;;;39.82;20.90
76598;BME280;65486;53.144;18.134;2023-06-26T07:50:59;100933.89;;;39.86;20.91
76598;BME280;65486;53.144;18.134;2023-06-26T07:53:25;100931.45;;;39.92;20.81
76598;BME280;65486;53.144;18.134;2023-06-26T07:55:51;100931.85;;;39.97;20.55
76598;BME280;65486;53.144;18.134;2023-06-26T07:58:21;100929.73;;;39.91;20.68
76598;BME280;65486;53.144;18.134;2023-06-26T08:00:47;100932.31;;;39.85;20.53
76598;BME280;65486;53.144;18.134;2023-06-26T08:03:17;100931.85;;;39.76;20.52
76598;BME280;65486;53.144;18.134;2023-06-26T08:05:43;100920.70;;;39.76;20.33
76598;BME280;65486;53.144;18.134;2023-06-26T08:08:10;100928.88;;;39.71;20.55
76598;BME280;65486;53.144;18.134;2023-06-26T08:10:36;100927.97;;;39.76;20.45
76598;BME280;65486;53.144;18.134;2023-06-26T08:13:03;100926.48;;;39.79;20.74
76598;BME280;65486;53.144;18.134;2023-06-26T08:15:30;100926.04;;;39.88;20.45
76598;BME280;65486;53.144;18.134;2023-06-26T08:18:02;100924.80;;;40.05;20.28
76598;BME280;65486;53.144;18.134;2023-06-26T08:20:28;100914.11;;;40.31;19.77
76598;BME280;65486;53.144;18.134;2023-06-26T08:22:55;100917.58;;;40.45;19.20
76598;BME280;65486;53.144;18.134;2023-06-26T08:25:23;100916.77;;;40.56;19.38
76598;BME280;65486;53.144;18.134;2023-06-26T08:27:54;100905.88;;;40.77;18.47
76598;BME280;65486;53.144;18.134;2023-06-26T08:30:22;100905.92;;;40.81;18.49
76598;BME280;65486;53.144;18.134;2023-06-26T08:32:50;100909.82;;;40.78;18.09
76598;BME280;65486;53.144;18.134;2023-06-26T08:35:17;100906.08;;;40.59;17.73
76598;BME280;65486;53.144;18.134;2023-06-26T08:37:45;100908.16;;;40.56;18.53
76598;BME280;65486;53.144;18.134;2023-06-26T08:40:18;100905.00;;;40.58;18.18
76598;BME280;65486;53.144;18.134;2023-06-26T08:42:48;100906.58;;;40.61;18.30
76598;BME280;65486;53.144;18.134;2023-06-26T08:45:22;100904.73;;;40.51;18.49
76598;BME280;65486;53.144;18.134;2023-06-26T08:47:51;100899.00;;;40.43;18.52
76598;BME280;65486;53.144;18.134;2023-06-26T08:50:23;100897.03;;;40.29;18.41
76598;BME280;65486;53.144;18.134;2023-06-26T08:53:46;100897.39;;;40.24;18.61
76598;BME280;65486;53.144;18.134;2023-06-26T08:56:06;100897.65;;;40.47;17.99
76598;BME280;65486;53.144;18.134;2023-06-26T08:58:34;100896.92;;;40.57;17.89
76598;BME280;65486;53.144;18.134;2023-06-26T09:01:02;100897.34;;;40.44;17.77
76598;BME280;65486;53.144;18.134;2023-06-26T09:03:31;100897.18;;;40.15;17.55
76598;BME280;65486;53.144;18.134;2023-06-26T09:05:58;100895.83;;;39.90;17.79
76598;BME280;65486;53.144;18.134;2023-06-26T09:08:25;100892.94;;;39.88;17.89
76598;BME280;65486;53.144;18.134;2023-06-26T09:10:52;100896.10;;;40.20;17.93
76598;BME280;65486;53.144;18.134;2023-06-26T09:13:20;100895.22;;;40.42;17.74
76598;BME280;65486;53.144;18.134;2023-06-26T09:15:48;100889.95;;;40.63;17.52
76598;BME280;65486;53.144;18.134;2023-06-26T09:18:18;100891.85;;;40.63;17.67
76598;BME280;65486;53.144;18.134;2023-06-26T09:20:50;100885.55;;;40.11;18.14
76598;BME280;65486;53.144;18.134;2023-06-26T09:23:17;100887.20;;;39.99;18.59
76598;BME280;65486;53.144;18.134;2023-06-26T09:25:47;100884.89;;;40.01;18.57
76598;BME280;65486;53.144;18.134;2023-06-26T09:28:13;100873.94;;;39.75;18.75
76598;BME280;65486;53.144;18.134;2023-06-26T09:30:44;100880.27;;;39.81;18.65
76598;BME280;65486;53.144;18.134;2023-06-26T09:33:16;100876.48;;;39.83;18.64
76598;BME280;65486;53.144;18.134;2023-06-26T09:35:43;100874.29;;;40.05;18.67
76598;BME280;65486;53.144;18.134;2023-06-26T09:38:12;100876.14;;;40.41;17.74
76598;BME280;65486;53.144;18.134;2023-06-26T09:40:42;100873.71;;;40.46;17.51
76598;BME280;65486;53.144;18.134;2023-06-26T09:43:10;100873.39;;;40.32;17.31
76598;BME280;65486;53.144;18.134;2023-06-26T09:45:39;100870.04;;;40.28;16.77
76598;BME280;65486;53.144;18.134;2023-06-26T09:48:06;100864.73;;;40.16;16.23
76598;BME280;65486;53.144;18.134;2023-06-26T09:50:41;100861.05;;;40.09;16.94
76598;BME280;65486;53.144;18.134;2023-06-26T09:53:12;100857.50;;;40.25;17.22
76598;BME280;65486;53.144;18.134;2023-06-26T09:55:44;100859.61;;;40.04;17.57
76598;BME280;65486;53.144;18.134;2023-06-26T09:58:12;100862.41;;;39.66;18.29
76598;BME280;65486;53.144;18.134;2023-06-26T10:00:44;100855.05;;;39.13;18.53
76598;BME280;65486;53.144;18.134;2023-06-26T10:03:11;100861.50;;;38.90;18.12
76598;BME280;65486;53.144;18.134;2023-06-26T10:05:41;100857.80;;;39.00;18.09
76598;BME280;65486;53.144;18.134;2023-06-26T10:08:11;100844.77;;;39.06;18.08
76598;BME280;65486;53.144;18.134;2023-06-26T10:10:40;100844.29;;;39.40;17.57
76598;BME280;65486;53.144;18.134;2023-06-26T10:13:15;100840.57;;;39.42;17.07
76598;BME280;65486;53.144;18.134;2023-06-26T10:15:44;100841.82;;;39.40;17.47
76598;BME280;65486;53.144;18.134;2023-06-26T10:18:13;100841.83;;;39.38;16.61
76598;BME280;65486;53.144;18.134;2023-06-26T10:20:47;100839.52;;;39.29;16.46
76598;BME280;65486;53.144;18.134;2023-06-26T10:23:15;100838.17;;;39.44;16.72
76598;BME280;65486;53.144;18.134;2023-06-26T10:25:48;100831.99;;;39.38;15.12
76598;BME280;65486;53.144;18.134;2023-06-26T10:28:19;100838.25;;;39.08;15.12
76598;BME280;65486;53.144;18.134;2023-06-26T10:30:51;100828.73;;;38.93;15.25
76598;BME280;65486;53.144;18.134;2023-06-26T10:33:19;100823.95;;;38.89;15.62
76598;BME280;65486;53.144;18.134;2023-06-26T10:35:46;100820.94;;;39.09;15.42
76598;BME280;65486;53.144;18.134;2023-06-26T10:38:13;100815.23;;;39.16;15.76
76598;BME280;65486;53.144;18.134;2023-06-26T10:40:50;100814.20;;;38.98;15.79
76598;BME280;65486;53.144;18.134;2023-06-26T10:43:17;100809.53;;;38.81;15.32
76598;BME280;65486;53.144;18.134;2023-06-26T10:45:49;100807.72;;;38.66;15.19
76598;BME280;65486;53.144;18.134;2023-06-26T10:48:28;100808.63;;;38.47;15.35
76598;BME280;65486;53.144;18.134;2023-06-26T10:50:58;100804.49;;;38.21;16.04
76598;BME280;65486;53.144;18.134;2023-06-26T10:53:53;100801.80;;;37.95;16.18
76598;BME280;65486;53.144;18.134;2023-06-26T10:56:40;100795.59;;;37.80;16.76
76598;BME280;65486;53.144;18.134;2023-06-26T10:59:14;100791.95;;;37.73;16.86
76598;BME280;65486;53.144;18.134;2023-06-26T11:01:42;100786.63;;;37.54;17.10
76598;BME280;65486;53.144;18.134;2023-06-26T11:04:09;100789.48;;;37.50;17.20
76598;BME280;65486;53.144;18.134;2023-06-26T11:06:39;100792.78;;;37.37;17.49
76598;BME280;65486;53.144;18.134;2023-06-26T11:09:08;100786.48;;;37.23;17.74
76598;BME280;65486;53.144;18.134;2023-06-26T11:14:22;100790.60;;;36.45;17.90
76598;BME280;65486;53.144;18.134;2023-06-26T11:16:52;100788.52;;;36.14;18.76
76598;BME280;65486;53.144;18.134;2023-06-26T11:19:34;100791.00;;;36.24;19.09
76598;BME280;65486;53.144;18.134;2023-06-26T11:22:24;100789.98;;;36.08;18.63
76598;BME280;65486;53.144;18.134;2023-06-26T11:24:53;100782.15;;;36.18;18.90
76598;BME280;65486;53.144;18.134;2023-06-26T11:27:20;100769.75;;;36.47;18.69
76598;BME280;65486;53.144;18.134;2023-06-26T11:29:50;100765.52;;;36.66;18.72
76598;BME280;65486;53.144;18.134;2023-06-26T11:32:17;100768.75;;;36.88;18.51
76598;BME280;65486;53.144;18.134;2023-06-26T11:34:44;100768.69;;;36.91;18.22
76598;BME280;65486;53.144;18.134;2023-06-26T11:37:10;100756.46;;;36.77;18.77
76598;BME280;65486;53.144;18.134;2023-06-26T11:39:38;100761.44;;;36.73;18.46
76598;BME280;65486;53.144;18.134;2023-06-26T11:42:04;100760.06;;;36.65;18.68
76598;BME280;65486;53.144;18.134;2023-06-26T11:44:31;100756.36;;;36.55;19.01
76598;BME280;65486;53.144;18.134;2023-06-26T11:46:58;100752.33;;;36.63;18.90
76598;BME280;65486;53.144;18.134;2023-06-26T11:49:25;100744.71;;;36.45;19.16
76598;BME280;65486;53.144;18.134;2023-06-26T11:51:54;100759.25;;;36.46;18.85
76598;BME280;65486;53.144;18.134;2023-06-26T11:54:26;100762.44;;;36.16;19.38
76598;BME280;65486;53.144;18.134;2023-06-26T11:56:58;100759.94;;;35.79;20.03
76598;BME280;65486;53.144;18.134;2023-06-26T11:59:38;100753.45;;;35.51;20.44
76598;BME280;65486;53.144;18.134;2023-06-26T12:02:10;100748.60;;;35.07;21.37
76598;BME280;65486;53.144;18.134;2023-06-26T12:04:44;100746.78;;;34.94;21.59
76598;BME280;65486;53.144;18.134;2023-06-26T12:07:12;100745.11;;;34.90;21.46
76598;BME280;65486;53.144;18.134;2023-06-26T12:09:42;100740.87;;;34.74;21.95
76598;BME280;65486;53.144;18.134;2023-06-26T12:12:15;100733.77;;;34.60;21.96
76598;BME280;65486;53.144;18.134;2023-06-26T12:14:42;100736.45;;;33.97;22.78
76598;BME280;65486;53.144;18.134;2023-06-26T12:17:11;100733.55;;;33.02;23.30
76598;BME280;65486;53.144;18.134;2023-06-26T12:19:43;100735.55;;;32.48;24.18
76598;BME280;65486;53.144;18.134;2023-06-26T12:22:17;100738.60;;;31.80;24.92
76598;BME280;65486;53.144;18.134;2023-06-26T12:24:47;100739.05;;;31.24;25.17
76598;BME280;65486;53.144;18.134;2023-06-26T12:27:18;100733.11;;;30.97;25.67
76598;BME280;65486;53.144;18.134;2023-06-26T12:30:05;100729.89;;;30.80;25.71
76598;BME280;65486;53.144;18.134;2023-06-26T12:32:34;100724.02;;;30.72;26.21
76598;BME280;65486;53.144;18.134;2023-06-26T12:35:05;100720.41;;;30.97;26.26
76598;BME280;65486;53.144;18.134;2023-06-26T12:37:36;100718.16;;;31.06;26.03
76598;BME280;65486;53.144;18.134;2023-06-26T12:40:18;100717.11;;;31.25;25.30
76598;BME280;65486;53.144;18.134;2023-06-26T12:42:53;100715.38;;;31.30;25.03
76598;BME280;65486;53.144;18.134;2023-06-26T12:45:24;100715.83;;;31.04;26.01
76598;BME280;65486;53.144;18.134;2023-06-26T12:47:53;100709.29;;;30.71;26.32
76598;BME280;65486;53.144;18.134;2023-06-26T12:50:23;100701.94;;;30.58;26.80
76598;BME280;65486;53.144;18.134;2023-06-26T12:52:49;100704.20;;;30.52;26.67
76598;BME280;65486;53.144;18.134;2023-06-26T12:55:16;100703.42;;;30.26;26.80
76598;BME280;65486;53.144;18.134;2023-06-26T12:57:43;100693.70;;;29.99;27.11